Time;durP1;ratioP1;P1;durP2;ratioP2;P2;SDS_P1;SDS_P2;PMS_P1;PMS_P2;Temp;Humidity;BMP_temperature;BMP_pressure;BME280_temperature;BME280_humidity;BME280_pressure;Samples;Min_cycle;Max_cycle;Signal;HPM_P1;HPM_P2
2022/04/15 00:00:26;;;;;;;63.35;29.38;;;;;;;11.01;71.90;102647.75;4955398;28;20577;-57
2022/04/15 00:02:52;;;;;;;56.75;28.35;;;;;;;10.96;71.97;102635.44;4945961;28;20568;-60
2022/04/15 00:05:34;;;;;;;52.85;26.42;;;;;;;10.93;71.88;102645.72;4962702;28;20552;-58
2022/04/15 00:08:00;;;;;;;56.22;27.73;;;;;;;10.89;71.58;102649.06;4960806;28;20670;-59
2022/04/15 00:10:28;;;;;;;57.38;28.20;;;;;;;10.89;72.06;102659.50;4942473;28;20568;-59
2022/04/15 00:12:54;;;;;;;52.95;27.17;;;;;;;10.86;72.21;102654.13;4948009;28;20097;-59
2022/04/15 00:15:20;;;;;;;56.50;28.20;;;;;;;10.84;72.28;102655.81;4952690;28;20266;-59
2022/04/15 00:17:45;;;;;;;53.33;27.55;;;;;;;10.82;72.32;102652.25;4949358;28;20058;-56
2022/04/15 00:20:11;;;;;;;62.72;29.00;;;;;;;10.83;71.96;102647.91;4955855;28;20049;-59
2022/04/15 00:22:37;;;;;;;57.08;27.83;;;;;;;10.85;71.93;102655.00;4955705;28;20196;-60
2022/04/15 00:25:02;;;;;;;56.80;27.27;;;;;;;10.82;72.08;102647.03;4946953;28;20404;-60
2022/04/15 00:27:28;;;;;;;56.50;27.33;;;;;;;10.85;71.95;102659.31;4957830;28;20085;-59
2022/04/15 00:29:54;;;;;;;52.83;26.92;;;;;;;10.78;72.22;102655.56;4947653;28;20505;-58
2022/04/15 00:32:19;;;;;;;60.22;27.05;;;;;;;10.78;72.21;102657.28;4957792;28;20125;-60
2022/04/15 00:34:45;;;;;;;56.38;27.23;;;;;;;10.72;72.19;102657.94;4960032;28;21815;-59
2022/04/15 00:37:11;;;;;;;54.33;27.60;;;;;;;10.73;72.04;102662.31;4957291;28;20514;-58
2022/04/15 00:39:38;;;;;;;50.72;26.15;;;;;;;10.74;71.73;102660.56;4965361;28;20433;-59
2022/04/15 00:42:08;;;;;;;54.90;26.52;;;;;;;10.73;72.36;102661.44;4946907;28;20502;-59
2022/04/15 00:44:34;;;;;;;49.28;25.23;;;;;;;10.75;72.19;102662.34;4961692;28;20050;-59
2022/04/15 00:46:59;;;;;;;53.55;27.02;;;;;;;10.74;72.05;102660.56;4955095;28;20536;-60
2022/04/15 00:49:24;;;;;;;51.72;27.20;;;;;;;10.73;72.14;102667.53;4963476;28;20046;-59
2022/04/15 00:51:51;;;;;;;48.78;25.95;;;;;;;10.75;72.49;102663.25;4944677;28;20046;-59
2022/04/15 00:54:18;;;;;;;54.10;27.50;;;;;;;10.70;72.34;102662.19;4936258;28;20042;-59
2022/04/15 00:56:45;;;;;;;55.10;26.85;;;;;;;10.72;72.36;102668.34;4955957;28;20124;-58
2022/04/15 00:59:12;;;;;;;53.42;26.95;;;;;;;10.72;72.78;102668.34;4952827;28;21945;-59
2022/04/15 01:01:40;;;;;;;45.35;24.27;;;;;;;10.76;72.20;102662.44;4946998;28;20780;-57
2022/04/15 01:04:05;;;;;;;52.08;25.60;;;;;;;10.69;72.01;102673.44;4961169;28;20086;-57
2022/04/15 01:06:31;;;;;;;49.47;25.02;;;;;;;10.64;72.58;102664.53;4959959;28;20070;-58
2022/04/15 01:08:58;;;;;;;53.60;26.13;;;;;;;10.62;72.61;102660.06;4951877;28;20035;-57
2022/04/15 01:11:26;;;;;;;50.33;26.15;;;;;;;10.58;72.31;102665.16;4957245;28;20773;-57
2022/04/15 01:13:53;;;;;;;45.80;24.83;;;;;;;10.60;72.17;102666.97;4957461;28;20058;-59
2022/04/15 01:16:20;;;;;;;50.83;25.75;;;;;;;10.57;72.30;102673.81;4961379;28;20086;-59
2022/04/15 01:18:46;;;;;;;55.63;27.35;;;;;;;10.56;72.62;102663.31;4962663;28;20042;-58
2022/04/15 01:21:12;;;;;;;46.42;24.48;;;;;;;10.61;72.14;102673.97;4939740;28;20114;-58
2022/04/15 01:23:40;;;;;;;43.47;24.05;;;;;;;10.57;71.84;102671.22;4957615;28;20057;-58
2022/04/15 01:26:06;;;;;;;48.72;25.67;;;;;;;10.52;71.92;102672.75;4958934;28;20050;-60
2022/04/15 01:28:33;;;;;;;54.40;27.48;;;;;;;10.49;72.54;102680.41;4961939;28;20359;-59
2022/04/15 01:30:58;;;;;;;49.67;24.98;;;;;;;10.47;72.39;102673.38;4951023;28;20058;-59
2022/04/15 01:33:23;;;;;;;47.05;24.75;;;;;;;10.44;72.01;102675.84;4957252;28;20651;-59
2022/04/15 01:35:49;;;;;;;53.30;25.65;;;;;;;10.39;72.49;102673.03;4961817;28;20742;-58
2022/04/15 01:38:17;;;;;;;50.47;25.45;;;;;;;10.36;72.86;102678.13;4957890;28;20413;-59
2022/04/15 01:40:43;;;;;;;48.92;25.30;;;;;;;10.36;72.50;102674.63;4955503;28;20583;-60
2022/04/15 01:43:10;;;;;;;56.47;26.48;;;;;;;10.31;72.97;102678.75;4951777;28;22044;-59
2022/04/15 01:45:35;;;;;;;56.65;26.42;;;;;;;10.34;73.14;102678.88;4959752;28;20054;-59
2022/04/15 01:48:01;;;;;;;58.75;27.20;;;;;;;10.30;73.36;102687.41;4932391;28;20371;-58
2022/04/15 01:50:28;;;;;;;55.35;26.92;;;;;;;10.32;73.03;102683.13;4961132;28;20050;-58
2022/04/15 01:52:54;;;;;;;49.42;25.35;;;;;;;10.32;72.54;102686.63;4945053;28;20121;-60
2022/04/15 01:55:19;;;;;;;49.10;23.73;;;;;;;10.28;72.38;102689.94;4958670;28;20402;-59
2022/04/15 01:57:45;;;;;;;52.72;25.52;;;;;;;10.25;72.99;102687.19;4956426;28;20046;-58
2022/04/15 02:00:11;;;;;;;48.50;25.05;;;;;;;10.28;72.27;102686.44;4956477;28;20081;-58
2022/04/15 02:02:36;;;;;;;55.78;25.58;;;;;;;10.22;72.51;102696.59;4958136;28;20414;-59
2022/04/15 02:05:02;;;;;;;56.78;26.35;;;;;;;10.21;72.06;102697.41;4952334;28;20129;-60
2022/04/15 02:07:27;;;;;;;60.92;28.23;;;;;;;10.25;73.25;102697.63;4961978;28;20502;-59
2022/04/15 02:09:52;;;;;;;65.50;29.98;;;;;;;10.37;73.54;102699.91;4947116;28;20620;-59
2022/04/15 02:12:18;;;;;;;57.13;26.92;;;;;;;10.51;73.27;102702.25;4958192;28;20038;-60
2022/04/15 02:14:49;;;;;;;65.30;30.15;;;;;;;10.62;73.42;102709.63;4958636;28;20053;-59
2022/04/15 02:17:14;;;;;;;62.55;28.67;;;;;;;10.78;73.47;102705.13;4955054;28;20506;-59
2022/04/15 02:19:40;;;;;;;66.05;30.63;;;;;;;10.89;73.47;102701.25;4956065;28;20204;-60
2022/04/15 02:22:05;;;;;;;67.63;30.40;;;;;;;10.95;73.48;102703.22;4953221;28;20127;-60
2022/04/15 02:24:30;;;;;;;64.13;30.45;;;;;;;10.91;73.14;102701.31;4942338;28;20557;-61
2022/04/15 02:26:56;;;;;;;69.00;31.13;;;;;;;11.04;72.84;102700.09;4950270;28;20104;-59
2022/04/15 02:29:22;;;;;;;65.43;29.83;;;;;;;11.12;72.91;102699.56;4958702;28;20413;-57
2022/04/15 02:31:47;;;;;;;63.30;29.55;;;;;;;10.93;72.70;102699.63;4955716;28;20211;-59
2022/04/15 02:34:13;;;;;;;56.53;28.23;;;;;;;10.85;72.92;102701.06;4956245;28;20045;-57
2022/04/15 02:36:38;;;;;;;66.20;31.05;;;;;;;10.80;73.00;102711.28;4952914;28;20046;-58
2022/04/15 02:39:10;;;;;;;66.93;30.23;;;;;;;10.90;73.04;102712.56;4951873;28;20053;-58
2022/04/15 02:41:36;;;;;;;81.70;28.85;;;;;;;10.86;73.04;102708.03;4956805;28;20132;-58
2022/04/15 02:44:01;;;;;;;98.63;29.38;;;;;;;10.80;73.37;102708.69;4937729;28;20054;-58
2022/04/15 02:46:26;;;;;;;116.32;30.35;;;;;;;10.56;73.43;102716.38;4957069;28;20052;-58
2022/04/15 02:48:52;;;;;;;70.85;30.13;;;;;;;10.78;73.42;102715.56;4951511;28;20039;-59
2022/04/15 02:51:17;;;;;;;66.25;29.85;;;;;;;10.93;73.51;102716.19;4959164;28;20053;-59
2022/04/15 02:53:43;;;;;;;70.32;29.27;;;;;;;10.92;73.16;102716.13;4958631;28;20062;-59
2022/04/15 02:56:08;;;;;;;59.25;27.58;;;;;;;11.12;72.82;102723.06;4942777;28;20038;-58
2022/04/15 02:58:34;;;;;;;60.13;26.33;;;;;;;10.97;73.35;102730.28;4951822;28;20108;-58
2022/04/15 03:01:00;;;;;;;57.92;25.73;;;;;;;10.94;73.14;102725.81;4953105;28;20430;-58
2022/04/15 03:03:27;;;;;;;56.75;25.88;;;;;;;11.07;72.80;102735.03;4959025;28;20041;-58
2022/04/15 03:05:53;;;;;;;55.40;26.23;;;;;;;11.09;72.58;102735.09;4946267;28;20638;-57
2022/04/15 03:08:18;;;;;;;55.22;25.52;;;;;;;11.08;72.72;102735.91;4956393;28;20049;-56
2022/04/15 03:10:43;;;;;;;54.50;25.45;;;;;;;10.95;73.00;102732.81;4944639;28;20050;-57
2022/04/15 03:13:09;;;;;;;62.17;26.55;;;;;;;11.08;73.17;102736.81;4950129;28;20196;-57
2022/04/15 03:15:37;;;;;;;60.15;27.42;;;;;;;11.01;73.01;102741.72;4957716;28;20129;-59
2022/04/15 03:18:02;;;;;;;60.30;27.00;;;;;;;11.12;73.10;102741.31;4961158;28;20049;-57
2022/04/15 03:20:28;;;;;;;58.10;26.30;;;;;;;11.17;73.01;102737.16;4961114;28;20410;-57
2022/04/15 03:22:54;;;;;;;58.60;26.38;;;;;;;11.22;73.08;102740.00;4948470;28;20042;-60
2022/04/15 03:25:19;;;;;;;54.60;25.00;;;;;;;11.26;72.58;102747.09;4948558;28;20041;-58
2022/04/15 03:27:46;;;;;;;56.03;25.08;;;;;;;11.26;72.38;102749.72;4956914;28;20053;-59
2022/04/15 03:30:11;;;;;;;55.22;25.30;;;;;;;11.20;72.30;102746.88;4946337;28;20053;-58
2022/04/15 03:32:48;;;;;;;54.30;24.40;;;;;;;11.24;72.42;102747.03;4959005;28;20050;-58
2022/04/15 03:35:15;;;;;;;52.80;24.88;;;;;;;11.22;72.48;102742.59;4949877;28;20082;-58
2022/04/15 03:37:40;;;;;;;52.50;24.00;;;;;;;11.29;72.21;102745.50;4951603;28;20135;-59
2022/04/15 03:40:06;;;;;;;52.95;24.00;;;;;;;11.34;72.42;102748.31;4958079;28;20086;-60
2022/04/15 03:42:42;;;;;;;50.58;24.08;;;;;;;11.26;72.06;102748.00;4955709;28;20054;-59
2022/04/15 03:45:08;;;;;;;48.45;23.02;;;;;;;11.07;72.56;102752.41;4930779;28;20649;-59
2022/04/15 03:47:34;;;;;;;48.15;23.15;;;;;;;11.18;72.64;102759.84;4958948;28;20162;-59
2022/04/15 03:49:59;;;;;;;46.28;22.05;;;;;;;11.23;71.98;102754.81;4944232;28;20061;-58
2022/04/15 03:52:24;;;;;;;47.17;21.60;;;;;;;11.30;72.33;102751.63;4958459;28;20129;-58
2022/04/15 03:54:50;;;;;;;44.00;21.50;;;;;;;11.18;72.37;102754.63;4949004;28;20046;-58
2022/04/15 03:57:15;;;;;;;41.30;21.17;;;;;;;11.29;72.64;102762.88;4954784;28;20061;-59
2022/04/15 03:59:40;;;;;;;39.58;20.10;;;;;;;11.25;72.13;102759.28;4953865;28;20137;-59
2022/04/15 04:02:06;;;;;;;43.15;20.33;;;;;;;11.21;71.89;102752.16;4947518;28;20469;-59
2022/04/15 04:04:31;;;;;;;38.63;19.55;;;;;;;11.18;71.82;102766.78;4951747;28;20039;-59
2022/04/15 04:06:56;;;;;;;41.25;20.30;;;;;;;11.09;72.60;102761.19;4943139;28;20580;-60
2022/04/15 04:09:22;;;;;;;44.75;20.65;;;;;;;11.17;72.50;102762.38;4959006;28;20101;-59
2022/04/15 04:11:48;;;;;;;42.72;19.63;;;;;;;11.29;72.14;102762.88;4957008;28;20048;-59
2022/04/15 04:14:13;;;;;;;39.88;19.08;;;;;;;11.08;71.88;102760.31;4956515;28;20769;-59
2022/04/15 04:16:38;;;;;;;38.17;19.05;;;;;;;11.08;71.90;102767.25;4946679;28;20026;-59
2022/04/15 04:19:04;;;;;;;34.78;19.02;;;;;;;11.10;72.25;102769.06;4957109;28;20068;-56
2022/04/15 04:21:33;;;;;;;37.20;19.00;;;;;;;11.11;71.80;102764.75;4953052;28;20065;-57
2022/04/15 04:23:58;;;;;;;40.30;19.60;;;;;;;11.28;71.34;102771.56;4958313;28;20373;-57
2022/04/15 04:26:24;;;;;;;36.88;19.02;;;;;;;11.28;71.54;102763.75;4949713;28;20130;-57
2022/04/15 04:28:49;;;;;;;37.20;19.00;;;;;;;11.10;71.63;102766.47;4959333;28;20133;-58
2022/04/15 04:31:15;;;;;;;38.58;18.65;;;;;;;11.11;71.97;102773.47;4955124;28;20046;-58
2022/04/15 04:33:50;;;;;;;41.47;20.05;;;;;;;11.15;71.43;102769.28;4963195;28;20324;-58
2022/04/15 04:36:16;;;;;;;39.53;18.92;;;;;;;11.16;71.57;102774.53;4955129;28;20049;-58
2022/04/15 04:38:41;;;;;;;38.00;18.88;;;;;;;11.14;71.48;102781.44;4962175;28;20303;-59
2022/04/15 04:41:06;;;;;;;35.28;18.08;;;;;;;11.04;71.49;102786.22;4948654;28;20175;-59
2022/04/15 04:43:32;;;;;;;38.08;18.85;;;;;;;11.06;71.69;102787.16;4958189;28;20050;-58
2022/04/15 04:45:57;;;;;;;36.55;18.02;;;;;;;11.08;71.59;102782.91;4960481;28;20378;-59
2022/04/15 04:48:23;;;;;;;40.33;18.50;;;;;;;11.08;71.29;102786.41;4962631;28;20710;-57
2022/04/15 04:50:49;;;;;;;37.10;18.17;;;;;;;11.07;71.51;102787.22;4956260;28;20133;-59
2022/04/15 04:53:17;;;;;;;39.05;18.98;;;;;;;11.10;71.72;102796.94;4950196;28;20472;-58
2022/04/15 04:55:42;;;;;;;42.35;19.60;;;;;;;11.03;72.11;102793.16;4958029;28;21001;-58
2022/04/15 04:58:07;;;;;;;43.92;19.73;;;;;;;10.97;72.44;102790.28;4965182;28;20129;-58
2022/04/15 05:00:32;;;;;;;41.78;19.38;;;;;;;11.07;71.87;102796.78;4957818;28;20069;-60
2022/04/15 05:02:59;;;;;;;41.72;19.65;;;;;;;11.05;72.27;102799.31;4953232;28;20042;-59
2022/04/15 05:05:25;;;;;;;41.60;19.23;;;;;;;10.99;72.36;102805.19;4961592;28;20038;-59
2022/04/15 05:07:50;;;;;;;41.92;19.50;;;;;;;11.10;71.61;102803.00;4961405;28;20708;-58
2022/04/15 05:10:15;;;;;;;42.15;19.02;;;;;;;11.14;71.59;102806.66;4959149;28;20047;-59
2022/04/15 05:12:41;;;;;;;39.83;19.23;;;;;;;11.10;71.77;102808.22;4959854;28;20464;-59
2022/04/15 05:15:07;;;;;;;39.75;18.02;;;;;;;11.23;71.57;102813.13;4947897;28;20634;-58
2022/04/15 05:17:32;;;;;;;40.42;18.38;;;;;;;11.26;71.62;102817.59;4958722;28;20046;-59
2022/04/15 05:19:57;;;;;;;38.50;17.48;;;;;;;11.35;71.53;102812.75;4961668;28;20397;-57
2022/04/15 05:22:23;;;;;;;36.83;18.30;;;;;;;11.25;71.32;102824.53;4960971;28;20088;-57
2022/04/15 05:24:49;;;;;;;39.00;18.25;;;;;;;11.25;71.53;102821.94;4963646;28;20077;-60
2022/04/15 05:27:14;;;;;;;38.83;18.23;;;;;;;11.28;71.64;102832.50;4931062;28;20112;-59
2022/04/15 05:29:39;;;;;;;38.88;18.35;;;;;;;11.38;71.16;102834.66;4958599;28;20504;-59
2022/04/15 05:32:05;;;;;;;37.92;18.35;;;;;;;11.45;71.08;102838.44;4940483;28;20058;-54
2022/04/15 05:34:30;;;;;;;37.92;18.35;;;;;;;11.38;71.04;102844.22;4951964;28;20457;-60
2022/04/15 05:36:55;;;;;;;32.85;16.95;;;;;;;11.37;70.95;102840.72;4953310;28;20046;-60
2022/04/15 05:39:21;;;;;;;33.47;16.85;;;;;;;11.37;70.45;102840.72;4953906;28;20054;-62
2022/04/15 05:41:46;;;;;;;33.20;16.48;;;;;;;11.35;70.53;102847.59;4952204;28;20046;-59
2022/04/15 05:44:13;;;;;;;31.98;16.83;;;;;;;11.32;70.61;102847.47;4958752;28;20093;-59
2022/04/15 05:46:39;;;;;;;35.30;17.35;;;;;;;11.31;70.76;102850.91;4958516;28;20039;-59
2022/04/15 05:49:08;;;;;;;30.98;16.45;;;;;;;11.47;70.92;102851.53;4953945;28;20359;-58
2022/04/15 05:51:34;;;;;;;37.13;17.27;;;;;;;11.40;70.27;102859.13;4945475;28;20145;-60
2022/04/15 05:53:59;;;;;;;35.85;16.80;;;;;;;11.36;70.57;102853.72;4962685;28;20498;-58
2022/04/15 05:56:24;;;;;;;39.25;17.67;;;;;;;11.50;70.62;102862.13;4953323;28;20042;-60
2022/04/15 05:58:50;;;;;;;38.40;18.08;;;;;;;11.38;70.63;102857.28;4953022;28;20043;-61
2022/04/15 06:01:16;;;;;;;37.10;18.05;;;;;;;11.52;70.99;102861.38;4953522;28;20094;-58
2022/04/15 06:03:41;;;;;;;39.33;18.13;;;;;;;11.69;70.39;102862.03;4955258;28;20046;-59
2022/04/15 06:06:07;;;;;;;36.45;17.25;;;;;;;11.75;69.97;102860.59;4960092;28;20073;-59
2022/04/15 06:08:32;;;;;;;37.97;17.70;;;;;;;11.91;69.42;102866.44;4958893;28;20524;-58
2022/04/15 06:10:59;;;;;;;35.58;17.73;;;;;;;11.85;69.19;102863.56;4943904;28;20061;-58
2022/04/15 06:13:25;;;;;;;41.50;18.38;;;;;;;11.85;69.05;102869.69;4955389;28;20313;-58
2022/04/15 06:15:55;;;;;;;36.40;18.42;;;;;;;11.74;69.40;102869.28;4941973;28;20038;-58
2022/04/15 06:18:22;;;;;;;40.20;18.55;;;;;;;11.77;69.70;102876.34;4964482;28;20041;-58
2022/04/15 06:20:48;;;;;;;37.85;18.05;;;;;;;11.95;69.24;102876.19;4955831;28;20364;-57
2022/04/15 06:23:14;;;;;;;33.85;17.35;;;;;;;11.90;69.08;102875.97;4954953;28;20054;-58
2022/04/15 06:25:40;;;;;;;33.95;16.92;;;;;;;11.95;69.11;102877.09;4963394;28;20046;-58
2022/04/15 06:28:06;;;;;;;31.40;16.55;;;;;;;12.02;68.32;102875.56;4948680;28;20046;-59
2022/04/15 06:30:32;;;;;;;32.53;16.77;;;;;;;12.00;68.30;102886.00;4957077;28;20053;-58
2022/04/15 06:32:57;;;;;;;30.65;16.42;;;;;;;12.12;67.76;102880.34;4953648;28;20585;-59
2022/04/15 06:35:22;;;;;;;33.03;16.70;;;;;;;12.05;67.87;102888.78;4955056;28;20111;-58
2022/04/15 06:37:48;;;;;;;26.33;15.57;;;;;;;12.03;67.44;102885.22;4959091;28;20576;-58
2022/04/15 06:40:13;;;;;;;27.88;16.13;;;;;;;12.16;67.15;102893.59;4957788;28;20509;-59
2022/04/15 06:42:39;;;;;;;30.60;16.25;;;;;;;12.21;67.02;102899.00;4958853;28;20108;-58
2022/04/15 06:45:05;;;;;;;27.80;15.20;;;;;;;12.18;66.23;102902.41;4935388;28;20035;-58
2022/04/15 06:47:30;;;;;;;25.40;15.35;;;;;;;12.29;66.29;102900.19;4960322;28;20043;-58
2022/04/15 06:49:56;;;;;;;25.02;14.95;;;;;;;12.37;65.21;102901.38;4956937;28;20053;-58
2022/04/15 06:52:21;;;;;;;23.67;14.70;;;;;;;12.18;64.66;102905.03;4957086;28;20453;-57
2022/04/15 06:54:47;;;;;;;23.23;14.25;;;;;;;12.08;65.17;102905.47;4950797;28;21219;-59
2022/04/15 06:57:12;;;;;;;22.77;14.90;;;;;;;12.33;65.14;102907.31;4954065;28;20461;-59
2022/04/15 06:59:38;;;;;;;23.77;14.30;;;;;;;12.30;64.42;102906.31;4958978;28;20066;-61
2022/04/15 07:02:04;;;;;;;22.17;15.00;;;;;;;12.45;64.64;102902.56;4956952;28;20498;-58
2022/04/15 07:04:31;;;;;;;24.60;14.88;;;;;;;12.43;64.50;102908.56;4936652;28;20587;-58
2022/04/15 07:06:56;;;;;;;28.83;15.63;;;;;;;12.26;64.98;102922.75;4951629;28;20042;-59
2022/04/15 07:09:22;;;;;;;22.50;14.57;;;;;;;12.26;65.08;102917.50;4950195;28;20457;-61
2022/04/15 07:11:47;;;;;;;23.85;14.25;;;;;;;12.36;64.81;102917.03;4954721;28;20620;-59
2022/04/15 07:14:16;;;;;;;20.92;12.85;;;;;;;12.44;64.05;102919.06;4957441;28;20170;-59
2022/04/15 07:16:42;;;;;;;20.38;13.00;;;;;;;12.45;63.74;102923.47;4950754;28;20507;-58
2022/04/15 07:19:07;;;;;;;18.73;12.23;;;;;;;12.68;63.09;102921.75;4955487;28;20569;-60
2022/04/15 07:21:39;;;;;;;17.00;11.85;;;;;;;12.74;63.04;102924.59;4945596;28;20785;-58
2022/04/15 07:24:06;;;;;;;16.55;11.45;;;;;;;13.22;62.10;102929.84;4947260;28;20064;-59
2022/04/15 07:26:32;;;;;;;16.35;11.40;;;;;;;13.69;62.12;102932.34;4956825;28;20372;-60
2022/04/15 07:28:58;;;;;;;17.42;11.27;;;;;;;13.91;61.19;102933.94;4951975;28;20165;-62
2022/04/15 07:31:24;;;;;;;14.48;9.75;;;;;;;13.90;58.34;102929.56;4945188;28;20042;-59
2022/04/15 07:33:49;;;;;;;16.45;10.25;;;;;;;13.90;58.39;102934.81;4952477;28;20035;-59
2022/04/15 07:38:59;;;;;;;16.42;9.88;;;;;;;13.76;59.98;102933.47;4945952;28;20038;-59
2022/04/15 07:41:24;;;;;;;14.13;10.00;;;;;;;13.64;60.33;102939.19;4956125;28;20042;-59
2022/04/15 07:43:50;;;;;;;14.25;9.52;;;;;;;13.66;60.19;102926.13;4957360;28;20544;-59
2022/04/15 07:46:16;;;;;;;15.68;9.98;;;;;;;13.32;60.84;102934.56;4954603;28;20051;-59
2022/04/15 07:48:41;;;;;;;15.43;9.32;;;;;;;13.43;59.40;102930.56;4943531;28;20046;-59
2022/04/15 07:51:07;;;;;;;15.30;9.80;;;;;;;13.62;58.90;102927.75;4951118;28;20054;-59
2022/04/15 07:53:32;;;;;;;16.95;9.98;;;;;;;14.01;58.61;102922.03;4939447;28;20050;-58
2022/04/15 07:55:57;;;;;;;13.48;9.00;;;;;;;14.54;57.57;102939.47;4952091;28;20220;-59
2022/04/15 07:58:23;;;;;;;11.25;8.13;;;;;;;15.11;54.97;102929.75;4954148;28;20053;-59
2022/04/15 08:00:49;;;;;;;13.43;8.10;;;;;;;15.29;54.10;102932.88;4958035;28;20532;-58
2022/04/15 08:03:15;;;;;;;11.40;6.90;;;;;;;15.37;53.08;102927.78;4959502;28;20362;-58
2022/04/15 08:05:40;;;;;;;13.38;7.75;;;;;;;15.38;53.57;102932.19;4957056;28;20046;-59
2022/04/15 08:08:06;;;;;;;13.60;7.60;;;;;;;15.30;54.23;102934.66;4947734;28;20504;-59
2022/04/15 08:10:31;;;;;;;12.93;6.70;;;;;;;15.26;52.38;102937.13;4955141;28;20535;-59
2022/04/15 08:12:57;;;;;;;10.93;7.20;;;;;;;14.98;53.05;102935.50;4947189;28;20100;-59
2022/04/15 08:15:22;;;;;;;10.02;6.60;;;;;;;14.85;53.41;102939.50;4956075;28;20148;-58
2022/04/15 08:17:48;;;;;;;12.65;7.00;;;;;;;14.87;53.44;102945.72;4959272;28;21283;-58
2022/04/15 08:33:59;;;;;;;11.65;6.60;;;;;;;14.77;52.99;102948.88;4961295;28;20421;-59
2022/04/15 08:36:24;;;;;;;11.77;6.85;;;;;;;14.71;54.94;102947.81;4955046;28;20043;-59
2022/04/15 08:38:51;;;;;;;10.98;6.78;;;;;;;14.80;55.38;102949.00;4946899;28;82759;-58
2022/04/15 08:41:18;;;;;;;10.65;6.82;;;;;;;14.97;53.87;102949.47;4958549;28;20116;-60
2022/04/15 08:43:43;;;;;;;9.18;6.30;;;;;;;15.23;54.58;102952.81;4958729;28;20754;-60
2022/04/15 08:46:11;;;;;;;11.50;6.82;;;;;;;15.14;52.40;102956.06;4963283;28;20056;-57
2022/04/15 08:48:38;;;;;;;10.05;6.55;;;;;;;15.34;53.46;102956.63;4951164;28;20106;-60
2022/04/15 08:51:04;;;;;;;10.65;6.18;;;;;;;15.75;51.70;102963.00;4954149;28;20061;-58
2022/04/15 08:53:31;;;;;;;10.00;6.78;;;;;;;15.98;50.55;102950.44;4951780;28;20612;-59
2022/04/15 08:55:57;;;;;;;9.05;6.47;;;;;;;15.79;50.67;102960.50;4951665;28;20118;-59
2022/04/15 08:58:25;;;;;;;8.95;6.45;;;;;;;16.12;51.99;102962.16;4967289;28;20145;-59
2022/04/15 09:00:50;;;;;;;11.48;6.63;;;;;;;16.21;51.59;102958.00;4938533;28;20046;-58
2022/04/15 09:03:15;;;;;;;9.93;6.38;;;;;;;16.05;51.50;102960.22;4959310;28;20092;-58
2022/04/15 09:05:41;;;;;;;12.00;6.43;;;;;;;15.92;51.58;102977.44;4960165;28;20501;-58
2022/04/15 09:08:12;;;;;;;7.90;6.18;;;;;;;15.81;52.57;102971.03;4953682;28;20061;-58
2022/04/15 09:10:40;;;;;;;10.70;6.18;;;;;;;16.07;51.40;102975.22;4955467;28;20049;-58
2022/04/15 09:13:07;;;;;;;11.85;6.10;;;;;;;16.12;50.75;102978.84;4957563;28;20402;-58
2022/04/15 09:15:33;;;;;;;12.63;8.75;;;;;;;16.02;50.58;102975.94;4946345;28;20584;-58
2022/04/15 09:18:00;;;;;;;9.10;6.20;;;;;;;16.16;49.88;102979.81;4944378;28;20046;-60
2022/04/15 09:20:31;;;;;;;10.68;6.15;;;;;;;16.35;49.15;102979.38;4962366;28;20073;-59
2022/04/15 09:23:08;;;;;;;9.75;6.25;;;;;;;16.50;49.07;102984.09;4956893;28;20381;-59
2022/04/15 09:25:34;;;;;;;10.02;6.43;;;;;;;16.24;49.77;102975.59;4963213;28;20050;-59
2022/04/15 09:28:00;;;;;;;9.38;6.10;;;;;;;16.40;48.66;102977.75;4950890;28;20196;-59
2022/04/15 09:30:37;;;;;;;8.43;5.90;;;;;;;16.71;47.47;102975.84;4964443;28;20559;-59
2022/04/15 09:33:03;;;;;;;11.68;6.63;;;;;;;16.49;49.16;102979.69;4961812;28;20145;-59
2022/04/15 09:35:29;;;;;;;8.43;6.18;;;;;;;16.49;50.01;102979.69;4947667;28;20069;-58
2022/04/15 09:37:59;;;;;;;11.07;6.10;;;;;;;16.84;47.94;102977.84;4962595;28;20052;-58
2022/04/15 09:40:27;;;;;;;8.73;6.18;;;;;;;17.28;48.13;102976.09;4959162;28;20360;-58
2022/04/15 09:42:58;;;;;;;10.27;6.13;;;;;;;16.96;49.62;102991.28;4949546;28;20137;-58
2022/04/15 09:45:26;;;;;;;9.00;6.00;;;;;;;16.66;48.78;102990.63;4958194;28;20080;-59
2022/04/15 09:47:54;;;;;;;10.02;5.93;;;;;;;17.15;47.47;102984.63;4960840;28;20130;-58
2022/04/15 09:50:27;;;;;;;9.73;6.22;;;;;;;17.19;47.64;102979.47;4951635;28;20084;-58
2022/04/15 09:52:54;;;;;;;9.17;6.43;;;;;;;17.48;47.29;102987.03;4963690;28;20464;-59
2022/04/15 09:55:21;;;;;;;9.80;6.15;;;;;;;17.09;47.96;102992.41;4950561;28;20046;-59
2022/04/15 09:57:48;;;;;;;9.70;6.78;;;;;;;16.88;47.56;102993.78;4962317;28;20510;-58
2022/04/15 10:00:18;;;;;;;9.73;6.15;;;;;;;16.92;48.12;102982.44;4953153;28;20677;-58
2022/04/15 10:02:44;;;;;;;13.68;6.40;;;;;;;16.93;49.18;102988.59;4955083;28;20065;-58
2022/04/15 10:05:12;;;;;;;9.02;6.50;;;;;;;16.91;49.46;102987.66;4959638;28;20050;-59
2022/04/15 10:07:40;;;;;;;9.55;6.32;;;;;;;16.78;48.18;102988.25;4960688;28;20571;-58
2022/04/15 10:10:07;;;;;;;8.88;6.30;;;;;;;16.98;47.09;102989.56;4951522;28;20056;-59
2022/04/15 10:12:37;;;;;;;8.40;6.22;;;;;;;17.06;47.92;102984.47;4949858;28;20045;-58
2022/04/15 10:15:05;;;;;;;9.10;5.95;;;;;;;17.14;47.14;102991.63;4955058;28;20497;-58
2022/04/15 10:17:32;;;;;;;8.80;6.03;;;;;;;16.73;47.63;102995.16;4958758;28;20054;-58
2022/04/15 10:19:58;;;;;;;10.82;6.18;;;;;;;17.28;47.93;102987.53;4955124;28;20043;-60
2022/04/15 10:22:24;;;;;;;9.05;5.65;;;;;;;17.32;47.41;102984.09;4960086;28;20280;-57
2022/04/15 10:24:50;;;;;;;7.60;5.90;;;;;;;17.21;47.62;102992.66;4958067;28;20046;-58
2022/04/15 10:27:25;;;;;;;8.20;5.95;;;;;;;17.23;46.48;102998.84;4959418;28;20119;-59
2022/04/15 10:30:02;;;;;;;8.32;5.60;;;;;;;17.29;46.51;102991.06;4961343;28;20070;-59
2022/04/15 10:32:28;;;;;;;8.50;5.38;;;;;;;17.47;46.55;102987.88;4960337;28;20046;-59
2022/04/15 10:34:53;;;;;;;8.57;5.80;;;;;;;17.32;48.69;102996.41;4948057;28;20042;-59
2022/04/15 10:37:50;;;;;;;8.60;6.05;;;;;;;17.40;47.33;102995.69;4956319;28;20053;-60
2022/04/15 10:40:22;;;;;;;6.35;4.78;;;;;;;18.04;46.11;102986.31;4949857;28;20508;-59
2022/04/15 10:42:48;;;;;;;9.27;5.53;;;;;;;17.47;45.51;102987.88;4961006;28;20046;-59
2022/04/15 10:45:34;;;;;;;8.32;5.68;;;;;;;17.65;45.99;102982.97;4967588;28;20433;-57
2022/04/15 10:48:01;;;;;;;8.63;5.45;;;;;;;17.62;45.77;102980.31;4960646;28;20573;-59
2022/04/15 10:50:28;;;;;;;9.52;5.70;;;;;;;17.31;46.05;102984.09;4953852;28;20046;-59
2022/04/15 10:53:17;;;;;;;7.50;5.45;;;;;;;17.58;46.23;102975.78;4959465;28;20765;-58
2022/04/15 10:55:48;;;;;;;9.73;6.13;;;;;;;17.54;44.68;102974.84;4960776;28;20042;-58
2022/04/15 10:58:14;;;;;;;8.68;5.70;;;;;;;17.58;45.41;102987.22;4952947;28;20195;-59
2022/04/15 11:03:27;;;;;;;7.05;5.00;;;;;;;17.81;46.63;102979.72;4958151;28;20085;-60
2022/04/15 11:05:57;;;;;;;10.65;6.18;;;;;;;17.20;46.39;102981.22;4953778;28;20371;-57
2022/04/15 11:08:26;;;;;;;7.97;5.63;;;;;;;17.53;47.28;102974.81;4955499;28;20132;-60
2022/04/15 11:11:07;;;;;;;9.30;5.70;;;;;;;17.52;47.04;102967.75;4954620;28;20054;-59
2022/04/15 11:13:40;;;;;;;7.35;5.47;;;;;;;17.80;46.27;102975.34;4948489;28;20137;-59
2022/04/15 11:16:16;;;;;;;10.57;6.63;;;;;;;17.93;44.65;102979.94;4952547;28;20053;-59
2022/04/15 11:18:56;;;;;;;10.07;6.50;;;;;;;17.53;45.42;102975.72;4951798;28;20117;-58
2022/04/15 11:21:36;;;;;;;10.85;6.63;;;;;;;17.45;46.05;102980.84;4953254;28;20131;-59
2022/04/15 11:24:12;;;;;;;8.50;6.13;;;;;;;17.40;47.19;102977.22;4933500;28;20124;-58
2022/04/15 11:26:39;;;;;;;8.00;5.80;;;;;;;17.52;45.47;102975.66;4954743;28;20057;-59
2022/04/15 11:29:07;;;;;;;7.68;5.88;;;;;;;17.36;46.47;102974.50;4960223;28;20432;-59